Highest pressure

Not for real navigation. The accuracy of this data is not assured See disclaimer for more information



ICAO NAME COUNTRY WIND Kt GUST Kt VIS m TEMP/DEW C BARO METAR
EFKU Kuopio Finland 1 0 150 8/8 30.80 EFKU 262120Z AUTO VRB01KT 0150 R33/0600U FG VV002 08/08 Q1043
EFLP Lappeenranta Finland 0 0 1200 8/8 30.80 EFLP 262120Z AUTO 00000KT 1200 R06/P1500N R24/P1500U BR OVC002 08/08 Q1043
EFUT Utti Finland 2 0 3800 9/8 30.80 EFUT 262120Z AUTO 12002KT 3800 BR VV003 09/08 Q1043
EFSA Savonlinna Finland 2 0 9999 8/8 30.80 EFSA 262120Z AUTO 34002KT 9999 OVC004 08/08 Q1043
EFKI Kajaani Finland 2 0 150 8/7 30.77 EFKI 262120Z AUTO 16002KT 0150 FG VV002 08/07 Q1042

Show more